sensor_id;sensor_type;location;lat;lon;timestamp;P1;durP1;ratioP1;P2;durP2;ratioP2
5257;SDS011;2651;51.594;9.928;2023-08-12T09:58:03;3.93;;;3.63;;
5257;SDS011;2651;51.594;9.928;2023-08-12T09:59:09;4.00;;;3.70;;
5257;SDS011;2651;51.594;9.928;2023-08-12T10:00:12;4.87;;;3.53;;
5257;SDS011;2651;51.594;9.928;2023-08-12T10:01:18;4.03;;;3.20;;
5257;SDS011;2651;51.594;9.928;2023-08-12T10:02:23;4.37;;;3.97;;
5257;SDS011;2651;51.594;9.928;2023-08-12T10:03:26;4.27;;;3.43;;
5257;SDS011;2651;51.594;9.928;2023-08-12T10:04:33;4.47;;;4.07;;
5257;SDS011;2651;51.594;9.928;2023-08-12T10:05:43;3.90;;;2.93;;
5257;SDS011;2651;51.594;9.928;2023-08-12T10:06:44;3.33;;;3.03;;
5257;SDS011;2651;51.594;9.928;2023-08-12T10:07:48;3.90;;;3.60;;
5257;SDS011;2651;51.594;9.928;2023-08-12T10:08:50;3.60;;;3.30;;
5257;SDS011;2651;51.594;9.928;2023-08-12T10:09:53;3.53;;;3.23;;
5257;SDS011;2651;51.594;9.928;2023-08-12T10:10:56;3.83;;;3.43;;
5257;SDS011;2651;51.594;9.928;2023-08-12T10:12:12;3.20;;;3.00;;
5257;SDS011;2651;51.594;9.928;2023-08-12T10:13:20;3.00;;;2.80;;
5257;SDS011;2651;51.594;9.928;2023-08-12T10:14:23;3.17;;;2.90;;
5257;SDS011;2651;51.594;9.928;2023-08-12T10:15:25;4.90;;;3.17;;
5257;SDS011;2651;51.594;9.928;2023-08-12T10:16:28;2.93;;;2.73;;
5257;SDS011;2651;51.594;9.928;2023-08-12T10:17:31;4.73;;;3.20;;
5257;SDS011;2651;51.594;9.928;2023-08-12T10:18:44;3.83;;;3.53;;
5257;SDS011;2651;51.594;9.928;2023-08-12T10:19:48;2.97;;;2.70;;
5257;SDS011;2651;51.594;9.928;2023-08-12T10:20:56;3.03;;;2.70;;
5257;SDS011;2651;51.594;9.928;2023-08-12T10:22:00;3.13;;;2.93;;
5257;SDS011;2651;51.594;9.928;2023-08-12T10:23:04;3.80;;;3.40;;
5257;SDS011;2651;51.594;9.928;2023-08-12T10:24:08;3.53;;;3.23;;
5257;SDS011;2651;51.594;9.928;2023-08-12T10:25:11;3.20;;;2.90;;
5257;SDS011;2651;51.594;9.928;2023-08-12T10:26:15;5.70;;;3.50;;
5257;SDS011;2651;51.594;9.928;2023-08-12T10:27:18;8.00;;;2.97;;
5257;SDS011;2651;51.594;9.928;2023-08-12T10:28:20;3.20;;;2.90;;
5257;SDS011;2651;51.594;9.928;2023-08-12T10:29:23;3.50;;;3.20;;
5257;SDS011;2651;51.594;9.928;2023-08-12T10:30:28;3.70;;;3.40;;
5257;SDS011;2651;51.594;9.928;2023-08-12T10:31:30;3.33;;;2.90;;
5257;SDS011;2651;51.594;9.928;2023-08-12T10:32:32;5.63;;;2.70;;
5257;SDS011;2651;51.594;9.928;2023-08-12T10:33:35;4.23;;;2.80;;
5257;SDS011;2651;51.594;9.928;2023-08-12T10:34:38;4.20;;;2.97;;
5257;SDS011;2651;51.594;9.928;2023-08-12T10:35:41;3.00;;;2.70;;
5257;SDS011;2651;51.594;9.928;2023-08-12T10:36:47;2.87;;;2.67;;
5257;SDS011;2651;51.594;9.928;2023-08-12T10:38:05;2.50;;;2.30;;
5257;SDS011;2651;51.594;9.928;2023-08-12T10:39:08;3.10;;;2.90;;
5257;SDS011;2651;51.594;9.928;2023-08-12T10:40:21;2.80;;;2.60;;
5257;SDS011;2651;51.594;9.928;2023-08-12T10:41:24;3.90;;;2.40;;
5257;SDS011;2651;51.594;9.928;2023-08-12T10:42:39;2.90;;;2.60;;
5257;SDS011;2651;51.594;9.928;2023-08-12T10:43:48;2.20;;;2.10;;
5257;SDS011;2651;51.594;9.928;2023-08-12T10:44:50;3.50;;;2.70;;
5257;SDS011;2651;51.594;9.928;2023-08-12T10:45:55;2.80;;;2.60;;
5257;SDS011;2651;51.594;9.928;2023-08-12T10:46:58;2.30;;;2.13;;
5257;SDS011;2651;51.594;9.928;2023-08-12T10:49:22;2.73;;;2.53;;
5257;SDS011;2651;51.594;9.928;2023-08-12T10:50:25;3.20;;;2.90;;
5257;SDS011;2651;51.594;9.928;2023-08-12T10:51:46;3.43;;;2.93;;
5257;SDS011;2651;51.594;9.928;2023-08-12T10:52:53;4.07;;;3.67;;
5257;SDS011;2651;51.594;9.928;2023-08-12T10:54:04;4.53;;;2.77;;
5257;SDS011;2651;51.594;9.928;2023-08-12T10:55:24;3.73;;;3.03;;
5257;SDS011;2651;51.594;9.928;2023-08-12T10:56:27;2.70;;;2.50;;
5257;SDS011;2651;51.594;9.928;2023-08-12T10:57:34;5.70;;;2.90;;
5257;SDS011;2651;51.594;9.928;2023-08-12T10:58:44;2.80;;;2.60;;
5257;SDS011;2651;51.594;9.928;2023-08-12T10:59:48;3.10;;;2.90;;
5257;SDS011;2651;51.594;9.928;2023-08-12T11:00:54;3.23;;;2.87;;
5257;SDS011;2651;51.594;9.928;2023-08-12T11:02:05;2.60;;;2.40;;
5257;SDS011;2651;51.594;9.928;2023-08-12T11:03:09;3.83;;;2.73;;
5257;SDS011;2651;51.594;9.928;2023-08-12T11:04:18;3.07;;;2.77;;
5257;SDS011;2651;51.594;9.928;2023-08-12T11:05:20;2.17;;;2.00;;
5257;SDS011;2651;51.594;9.928;2023-08-12T11:06:22;2.10;;;1.90;;
5257;SDS011;2651;51.594;9.928;2023-08-12T11:07:40;2.00;;;1.80;;
5257;SDS011;2651;51.594;9.928;2023-08-12T11:08:46;2.10;;;2.00;;
5257;SDS011;2651;51.594;9.928;2023-08-12T11:09:56;1.60;;;1.50;;
5257;SDS011;2651;51.594;9.928;2023-08-12T11:11:01;1.87;;;1.77;;
5257;SDS011;2651;51.594;9.928;2023-08-12T11:12:03;1.90;;;1.60;;
5257;SDS011;2651;51.594;9.928;2023-08-12T11:13:05;1.93;;;1.83;;
5257;SDS011;2651;51.594;9.928;2023-08-12T11:14:14;2.10;;;1.90;;
5257;SDS011;2651;51.594;9.928;2023-08-12T11:15:16;2.17;;;1.97;;
5257;SDS011;2651;51.594;9.928;2023-08-12T11:16:19;1.80;;;1.70;;
5257;SDS011;2651;51.594;9.928;2023-08-12T11:18:42;3.10;;;1.73;;
5257;SDS011;2651;51.594;9.928;2023-08-12T11:19:43;4.70;;;1.70;;
5257;SDS011;2651;51.594;9.928;2023-08-12T11:20:48;1.47;;;1.37;;
5257;SDS011;2651;51.594;9.928;2023-08-12T11:21:51;1.60;;;1.33;;
5257;SDS011;2651;51.594;9.928;2023-08-12T11:22:53;4.57;;;1.47;;
5257;SDS011;2651;51.594;9.928;2023-08-12T11:23:55;1.53;;;1.43;;
5257;SDS011;2651;51.594;9.928;2023-08-12T11:24:57;1.57;;;1.40;;
5257;SDS011;2651;51.594;9.928;2023-08-12T11:25:59;1.47;;;1.37;;
5257;SDS011;2651;51.594;9.928;2023-08-12T11:27:02;1.53;;;1.43;;
5257;SDS011;2651;51.594;9.928;2023-08-12T11:28:04;1.70;;;1.60;;
5257;SDS011;2651;51.594;9.928;2023-08-12T11:29:10;1.60;;;1.40;;
5257;SDS011;2651;51.594;9.928;2023-08-12T11:30:13;1.63;;;1.40;;
5257;SDS011;2651;51.594;9.928;2023-08-12T11:31:17;1.50;;;1.20;;
5257;SDS011;2651;51.594;9.928;2023-08-12T11:32:19;1.93;;;1.67;;
5257;SDS011;2651;51.594;9.928;2023-08-12T11:33:21;1.57;;;1.47;;
5257;SDS011;2651;51.594;9.928;2023-08-12T11:34:25;1.83;;;1.73;;
5257;SDS011;2651;51.594;9.928;2023-08-12T11:35:27;1.60;;;1.50;;
5257;SDS011;2651;51.594;9.928;2023-08-12T11:36:29;2.27;;;1.60;;
5257;SDS011;2651;51.594;9.928;2023-08-12T11:37:32;1.70;;;1.60;;
5257;SDS011;2651;51.594;9.928;2023-08-12T11:38:37;1.40;;;1.30;;
5257;SDS011;2651;51.594;9.928;2023-08-12T11:39:39;1.10;;;1.10;;
5257;SDS011;2651;51.594;9.928;2023-08-12T11:40:40;1.57;;;1.40;;
5257;SDS011;2651;51.594;9.928;2023-08-12T11:41:42;1.33;;;1.23;;
5257;SDS011;2651;51.594;9.928;2023-08-12T11:42:44;1.30;;;1.20;;
5257;SDS011;2651;51.594;9.928;2023-08-12T11:43:47;2.20;;;1.60;;
5257;SDS011;2651;51.594;9.928;2023-08-12T11:44:49;1.70;;;1.60;;
5257;SDS011;2651;51.594;9.928;2023-08-12T11:45:51;1.43;;;1.33;;
5257;SDS011;2651;51.594;9.928;2023-08-12T11:46:56;1.63;;;1.53;;
5257;SDS011;2651;51.594;9.928;2023-08-12T11:47:57;1.43;;;1.33;;
5257;SDS011;2651;51.594;9.928;2023-08-12T11:48:59;2.30;;;1.70;;
5257;SDS011;2651;51.594;9.928;2023-08-12T11:50:02;1.90;;;1.80;;
5257;SDS011;2651;51.594;9.928;2023-08-12T11:51:05;1.80;;;1.67;;
5257;SDS011;2651;51.594;9.928;2023-08-12T11:52:08;1.70;;;1.60;;
5257;SDS011;2651;51.594;9.928;2023-08-12T11:53:12;1.67;;;1.57;;
5257;SDS011;2651;51.594;9.928;2023-08-12T11:54:15;1.93;;;1.60;;
5257;SDS011;2651;51.594;9.928;2023-08-12T11:55:17;2.00;;;1.90;;
5257;SDS011;2651;51.594;9.928;2023-08-12T11:56:19;2.40;;;2.20;;
5257;SDS011;2651;51.594;9.928;2023-08-12T11:57:21;2.37;;;2.17;;
5257;SDS011;2651;51.594;9.928;2023-08-12T11:58:24;2.63;;;2.40;;
5257;SDS011;2651;51.594;9.928;2023-08-12T11:59:34;8.73;;;1.80;;
5257;SDS011;2651;51.594;9.928;2023-08-12T12:00:36;1.90;;;1.80;;
5257;SDS011;2651;51.594;9.928;2023-08-12T12:01:38;1.90;;;1.80;;
5257;SDS011;2651;51.594;9.928;2023-08-12T12:02:51;1.77;;;1.67;;
5257;SDS011;2651;51.594;9.928;2023-08-12T12:03:54;6.87;;;1.70;;
5257;SDS011;2651;51.594;9.928;2023-08-12T12:04:56;1.83;;;1.73;;
5257;SDS011;2651;51.594;9.928;2023-08-12T12:05:58;2.47;;;2.27;;
5257;SDS011;2651;51.594;9.928;2023-08-12T12:06:59;1.73;;;1.63;;
5257;SDS011;2651;51.594;9.928;2023-08-12T12:08:07;2.00;;;1.70;;
5257;SDS011;2651;51.594;9.928;2023-08-12T12:09:11;2.00;;;1.90;;
5257;SDS011;2651;51.594;9.928;2023-08-12T12:10:13;3.33;;;1.83;;
5257;SDS011;2651;51.594;9.928;2023-08-12T12:11:19;1.70;;;1.60;;
5257;SDS011;2651;51.594;9.928;2023-08-12T12:12:22;1.97;;;1.87;;
5257;SDS011;2651;51.594;9.928;2023-08-12T12:13:25;1.50;;;1.40;;
5257;SDS011;2651;51.594;9.928;2023-08-12T12:14:28;1.73;;;1.63;;
5257;SDS011;2651;51.594;9.928;2023-08-12T12:15:30;2.00;;;1.80;;
5257;SDS011;2651;51.594;9.928;2023-08-12T12:17:41;2.13;;;1.63;;
5257;SDS011;2651;51.594;9.928;2023-08-12T12:18:46;1.63;;;1.53;;
5257;SDS011;2651;51.594;9.928;2023-08-12T12:19:51;3.93;;;2.00;;
5257;SDS011;2651;51.594;9.928;2023-08-12T12:21:00;1.90;;;1.80;;
5257;SDS011;2651;51.594;9.928;2023-08-12T12:22:02;13.37;;;2.30;;
5257;SDS011;2651;51.594;9.928;2023-08-12T12:23:05;2.20;;;2.00;;
5257;SDS011;2651;51.594;9.928;2023-08-12T12:24:08;2.37;;;2.27;;
5257;SDS011;2651;51.594;9.928;2023-08-12T12:25:11;1.73;;;1.63;;
5257;SDS011;2651;51.594;9.928;2023-08-12T12:26:15;30.60;;;2.20;;
5257;SDS011;2651;51.594;9.928;2023-08-12T12:27:17;3.67;;;3.37;;
5257;SDS011;2651;51.594;9.928;2023-08-12T12:28:18;2.00;;;1.90;;
5257;SDS011;2651;51.594;9.928;2023-08-12T12:29:20;2.10;;;1.83;;
5257;SDS011;2651;51.594;9.928;2023-08-12T12:30:22;1.70;;;1.60;;
5257;SDS011;2651;51.594;9.928;2023-08-12T12:31:24;1.67;;;1.57;;
5257;SDS011;2651;51.594;9.928;2023-08-12T12:32:25;1.80;;;1.70;;
5257;SDS011;2651;51.594;9.928;2023-08-12T12:33:27;1.80;;;1.70;;
5257;SDS011;2651;51.594;9.928;2023-08-12T12:34:29;1.97;;;1.77;;
5257;SDS011;2651;51.594;9.928;2023-08-12T12:35:31;1.70;;;1.60;;
5257;SDS011;2651;51.594;9.928;2023-08-12T12:36:47;1.77;;;1.67;;
5257;SDS011;2651;51.594;9.928;2023-08-12T12:37:49;1.87;;;1.77;;
5257;SDS011;2651;51.594;9.928;2023-08-12T12:38:51;1.73;;;1.63;;
5257;SDS011;2651;51.594;9.928;2023-08-12T12:39:52;1.97;;;1.87;;
5257;SDS011;2651;51.594;9.928;2023-08-12T12:40:54;2.50;;;1.90;;
5257;SDS011;2651;51.594;9.928;2023-08-12T12:41:57;1.90;;;1.67;;
5257;SDS011;2651;51.594;9.928;2023-08-12T12:43:00;5.63;;;2.00;;
5257;SDS011;2651;51.594;9.928;2023-08-12T12:44:04;3.37;;;2.27;;
5257;SDS011;2651;51.594;9.928;2023-08-12T12:45:06;2.20;;;2.00;;
5257;SDS011;2651;51.594;9.928;2023-08-12T12:46:08;2.10;;;2.00;;
5257;SDS011;2651;51.594;9.928;2023-08-12T12:47:10;1.93;;;1.83;;
5257;SDS011;2651;51.594;9.928;2023-08-12T12:48:13;2.00;;;1.90;;
5257;SDS011;2651;51.594;9.928;2023-08-12T12:49:15;8.63;;;2.30;;
5257;SDS011;2651;51.594;9.928;2023-08-12T12:50:16;4.10;;;1.90;;
5257;SDS011;2651;51.594;9.928;2023-08-12T12:51:18;6.70;;;1.90;;
5257;SDS011;2651;51.594;9.928;2023-08-12T12:52:20;3.50;;;2.00;;
5257;SDS011;2651;51.594;9.928;2023-08-12T12:53:22;4.90;;;2.73;;
5257;SDS011;2651;51.594;9.928;2023-08-12T12:54:23;1.57;;;1.47;;
5257;SDS011;2651;51.594;9.928;2023-08-12T12:55:25;1.83;;;1.73;;
5257;SDS011;2651;51.594;9.928;2023-08-12T12:56:27;1.57;;;1.47;;
5257;SDS011;2651;51.594;9.928;2023-08-12T12:57:29;1.50;;;1.40;;
5257;SDS011;2651;51.594;9.928;2023-08-12T12:58:31;1.60;;;1.50;;
5257;SDS011;2651;51.594;9.928;2023-08-12T12:59:34;2.10;;;1.70;;
5257;SDS011;2651;51.594;9.928;2023-08-12T13:00:36;5.70;;;2.00;;
5257;SDS011;2651;51.594;9.928;2023-08-12T13:01:37;2.07;;;1.87;;
5257;SDS011;2651;51.594;9.928;2023-08-12T13:02:42;1.67;;;1.57;;
5257;SDS011;2651;51.594;9.928;2023-08-12T13:03:44;2.00;;;1.90;;
5257;SDS011;2651;51.594;9.928;2023-08-12T13:04:46;2.10;;;2.00;;
5257;SDS011;2651;51.594;9.928;2023-08-12T13:05:47;2.30;;;2.20;;
5257;SDS011;2651;51.594;9.928;2023-08-12T13:06:50;1.90;;;1.80;;
5257;SDS011;2651;51.594;9.928;2023-08-12T13:07:52;2.17;;;1.90;;
5257;SDS011;2651;51.594;9.928;2023-08-12T13:08:54;2.30;;;1.83;;
5257;SDS011;2651;51.594;9.928;2023-08-12T13:09:55;2.00;;;1.80;;
5257;SDS011;2651;51.594;9.928;2023-08-12T13:10:57;1.70;;;1.60;;
5257;SDS011;2651;51.594;9.928;2023-08-12T13:11:59;1.73;;;1.57;;
5257;SDS011;2651;51.594;9.928;2023-08-12T13:13:01;1.50;;;1.40;;
5257;SDS011;2651;51.594;9.928;2023-08-12T13:14:04;2.60;;;1.83;;
5257;SDS011;2651;51.594;9.928;2023-08-12T13:15:06;1.60;;;1.50;;
5257;SDS011;2651;51.594;9.928;2023-08-12T13:16:08;2.17;;;1.60;;
5257;SDS011;2651;51.594;9.928;2023-08-12T13:17:10;1.37;;;1.27;;
5257;SDS011;2651;51.594;9.928;2023-08-12T13:18:11;1.80;;;1.70;;
5257;SDS011;2651;51.594;9.928;2023-08-12T13:19:13;2.07;;;1.97;;
5257;SDS011;2651;51.594;9.928;2023-08-12T13:20:15;1.70;;;1.60;;
5257;SDS011;2651;51.594;9.928;2023-08-12T13:21:17;1.63;;;1.53;;
5257;SDS011;2651;51.594;9.928;2023-08-12T13:22:19;4.83;;;1.77;;
5257;SDS011;2651;51.594;9.928;2023-08-12T13:23:21;2.07;;;1.60;;
5257;SDS011;2651;51.594;9.928;2023-08-12T13:24:23;1.63;;;1.53;;
5257;SDS011;2651;51.594;9.928;2023-08-12T13:25:24;1.53;;;1.43;;
5257;SDS011;2651;51.594;9.928;2023-08-12T13:26:26;1.50;;;1.40;;
5257;SDS011;2651;51.594;9.928;2023-08-12T13:27:28;1.67;;;1.57;;
5257;SDS011;2651;51.594;9.928;2023-08-12T13:28:29;1.70;;;1.60;;
5257;SDS011;2651;51.594;9.928;2023-08-12T13:29:31;1.60;;;1.50;;
5257;SDS011;2651;51.594;9.928;2023-08-12T13:30:33;1.70;;;1.60;;
5257;SDS011;2651;51.594;9.928;2023-08-12T13:31:35;1.80;;;1.70;;
5257;SDS011;2651;51.594;9.928;2023-08-12T13:32:37;1.73;;;1.40;;
5257;SDS011;2651;51.594;9.928;2023-08-12T13:33:39;1.60;;;1.50;;
5257;SDS011;2651;51.594;9.928;2023-08-12T13:34:41;1.50;;;1.40;;
5257;SDS011;2651;51.594;9.928;2023-08-12T13:35:44;1.43;;;1.33;;
5257;SDS011;2651;51.594;9.928;2023-08-12T13:36:46;1.23;;;1.23;;
5257;SDS011;2651;51.594;9.928;2023-08-12T13:37:48;1.50;;;1.40;;
5257;SDS011;2651;51.594;9.928;2023-08-12T13:38:52;1.13;;;1.13;;
5257;SDS011;2651;51.594;9.928;2023-08-12T13:39:53;1.53;;;1.43;;
5257;SDS011;2651;51.594;9.928;2023-08-12T13:40:55;1.13;;;1.10;;
5257;SDS011;2651;51.594;9.928;2023-08-12T13:41:57;1.10;;;1.10;;
5257;SDS011;2651;51.594;9.928;2023-08-12T13:42:58;1.47;;;1.37;;
5257;SDS011;2651;51.594;9.928;2023-08-12T13:44:00;3.53;;;1.37;;
5257;SDS011;2651;51.594;9.928;2023-08-12T13:45:02;1.60;;;1.50;;
5257;SDS011;2651;51.594;9.928;2023-08-12T13:46:04;2.63;;;1.67;;
5257;SDS011;2651;51.594;9.928;2023-08-12T13:47:06;2.80;;;1.90;;
5257;SDS011;2651;51.594;9.928;2023-08-12T13:48:07;1.70;;;1.60;;
5257;SDS011;2651;51.594;9.928;2023-08-12T13:49:09;1.57;;;1.47;;
5257;SDS011;2651;51.594;9.928;2023-08-12T13:50:12;2.90;;;1.97;;
5257;SDS011;2651;51.594;9.928;2023-08-12T13:51:14;3.33;;;1.90;;
5257;SDS011;2651;51.594;9.928;2023-08-12T13:52:16;7.13;;;1.70;;
5257;SDS011;2651;51.594;9.928;2023-08-12T13:53:18;6.10;;;1.67;;
5257;SDS011;2651;51.594;9.928;2023-08-12T13:54:20;1.27;;;1.20;;
5257;SDS011;2651;51.594;9.928;2023-08-12T13:55:22;1.83;;;1.27;;
5257;SDS011;2651;51.594;9.928;2023-08-12T13:56:24;1.37;;;1.27;;
5257;SDS011;2651;51.594;9.928;2023-08-12T13:57:26;1.40;;;1.30;;
5257;SDS011;2651;51.594;9.928;2023-08-12T13:58:27;1.67;;;1.57;;
5257;SDS011;2651;51.594;9.928;2023-08-12T13:59:29;2.20;;;1.90;;
5257;SDS011;2651;51.594;9.928;2023-08-12T14:00:31;1.50;;;1.40;;
5257;SDS011;2651;51.594;9.928;2023-08-12T14:01:33;2.73;;;1.50;;
5257;SDS011;2651;51.594;9.928;2023-08-12T14:02:35;1.97;;;1.87;;
5257;SDS011;2651;51.594;9.928;2023-08-12T14:03:40;1.87;;;1.77;;
5257;SDS011;2651;51.594;9.928;2023-08-12T14:04:42;2.00;;;1.80;;
5257;SDS011;2651;51.594;9.928;2023-08-12T14:05:43;1.80;;;1.70;;
5257;SDS011;2651;51.594;9.928;2023-08-12T14:06:46;1.80;;;1.63;;
5257;SDS011;2651;51.594;9.928;2023-08-12T14:07:47;2.10;;;2.00;;
5257;SDS011;2651;51.594;9.928;2023-08-12T14:08:49;2.10;;;1.90;;
5257;SDS011;2651;51.594;9.928;2023-08-12T14:09:51;1.70;;;1.60;;
5257;SDS011;2651;51.594;9.928;2023-08-12T14:10:53;2.10;;;1.90;;
5257;SDS011;2651;51.594;9.928;2023-08-12T14:11:55;1.87;;;1.70;;
5257;SDS011;2651;51.594;9.928;2023-08-12T14:12:56;2.37;;;2.17;;
5257;SDS011;2651;51.594;9.928;2023-08-12T14:13:58;2.37;;;1.80;;
5257;SDS011;2651;51.594;9.928;2023-08-12T14:15:00;1.97;;;1.87;;
5257;SDS011;2651;51.594;9.928;2023-08-12T14:16:02;1.80;;;1.70;;
5257;SDS011;2651;51.594;9.928;2023-08-12T14:17:04;2.30;;;2.10;;
5257;SDS011;2651;51.594;9.928;2023-08-12T14:18:06;3.00;;;2.00;;
5257;SDS011;2651;51.594;9.928;2023-08-12T14:19:07;2.90;;;2.00;;
5257;SDS011;2651;51.594;9.928;2023-08-12T14:20:10;6.00;;;2.87;;
5257;SDS011;2651;51.594;9.928;2023-08-12T14:21:12;3.20;;;2.00;;
5257;SDS011;2651;51.594;9.928;2023-08-12T14:22:13;4.47;;;2.00;;
5257;SDS011;2651;51.594;9.928;2023-08-12T14:23:16;6.63;;;1.90;;
5257;SDS011;2651;51.594;9.928;2023-08-12T14:24:17;1.93;;;1.40;;
5257;SDS011;2651;51.594;9.928;2023-08-12T14:25:19;2.37;;;2.17;;
5257;SDS011;2651;51.594;9.928;2023-08-12T14:26:21;1.77;;;1.67;;
5257;SDS011;2651;51.594;9.928;2023-08-12T14:27:23;2.07;;;1.70;;
5257;SDS011;2651;51.594;9.928;2023-08-12T14:28:24;1.80;;;1.50;;
5257;SDS011;2651;51.594;9.928;2023-08-12T14:29:26;1.80;;;1.70;;
5257;SDS011;2651;51.594;9.928;2023-08-12T14:30:28;2.03;;;1.93;;
5257;SDS011;2651;51.594;9.928;2023-08-12T14:31:29;1.63;;;1.53;;
5257;SDS011;2651;51.594;9.928;2023-08-12T14:32:31;1.53;;;1.43;;
5257;SDS011;2651;51.594;9.928;2023-08-12T14:33:33;1.50;;;1.40;;
5257;SDS011;2651;51.594;9.928;2023-08-12T14:34:34;1.73;;;1.63;;
5257;SDS011;2651;51.594;9.928;2023-08-12T14:35:36;1.60;;;1.50;;
5257;SDS011;2651;51.594;9.928;2023-08-12T14:36:38;1.40;;;1.30;;
5257;SDS011;2651;51.594;9.928;2023-08-12T14:37:40;1.57;;;1.47;;
5257;SDS011;2651;51.594;9.928;2023-08-12T14:38:42;1.67;;;1.57;;
5257;SDS011;2651;51.594;9.928;2023-08-12T14:39:43;7.90;;;1.40;;
5257;SDS011;2651;51.594;9.928;2023-08-12T14:40:48;1.63;;;1.53;;
5257;SDS011;2651;51.594;9.928;2023-08-12T14:41:50;1.93;;;1.60;;
5257;SDS011;2651;51.594;9.928;2023-08-12T14:42:51;1.63;;;1.53;;
5257;SDS011;2651;51.594;9.928;2023-08-12T14:43:53;1.60;;;1.50;;
5257;SDS011;2651;51.594;9.928;2023-08-12T14:44:55;1.90;;;1.40;;
5257;SDS011;2651;51.594;9.928;2023-08-12T14:45:57;1.43;;;1.33;;
5257;SDS011;2651;51.594;9.928;2023-08-12T14:46:58;1.40;;;1.30;;
5257;SDS011;2651;51.594;9.928;2023-08-12T14:48:00;1.67;;;1.30;;
5257;SDS011;2651;51.594;9.928;2023-08-12T14:49:02;2.13;;;2.03;;
5257;SDS011;2651;51.594;9.928;2023-08-12T14:50:05;1.80;;;1.70;;
5257;SDS011;2651;51.594;9.928;2023-08-12T14:51:07;1.63;;;1.53;;
5257;SDS011;2651;51.594;9.928;2023-08-12T14:52:18;1.63;;;1.53;;
5257;SDS011;2651;51.594;9.928;2023-08-12T14:53:21;1.70;;;1.60;;
5257;SDS011;2651;51.594;9.928;2023-08-12T14:54:22;2.73;;;1.60;;
5257;SDS011;2651;51.594;9.928;2023-08-12T14:55:24;1.77;;;1.67;;
5257;SDS011;2651;51.594;9.928;2023-08-12T14:56:26;2.20;;;2.00;;
5257;SDS011;2651;51.594;9.928;2023-08-12T14:57:28;1.80;;;1.70;;
5257;SDS011;2651;51.594;9.928;2023-08-12T14:58:29;1.90;;;1.80;;
5257;SDS011;2651;51.594;9.928;2023-08-12T14:59:31;1.70;;;1.60;;
5257;SDS011;2651;51.594;9.928;2023-08-12T15:00:33;3.43;;;1.60;;
5257;SDS011;2651;51.594;9.928;2023-08-12T15:01:35;2.07;;;1.70;;
5257;SDS011;2651;51.594;9.928;2023-08-12T15:02:36;1.53;;;1.43;;
5257;SDS011;2651;51.594;9.928;2023-08-12T15:03:38;1.67;;;1.57;;
5257;SDS011;2651;51.594;9.928;2023-08-12T15:04:40;1.70;;;1.60;;
5257;SDS011;2651;51.594;9.928;2023-08-12T15:05:42;1.90;;;1.80;;
5257;SDS011;2651;51.594;9.928;2023-08-12T15:06:44;18.93;;;2.50;;
5257;SDS011;2651;51.594;9.928;2023-08-12T15:07:45;3.03;;;1.83;;
5257;SDS011;2651;51.594;9.928;2023-08-12T15:08:47;1.73;;;1.63;;
5257;SDS011;2651;51.594;9.928;2023-08-12T15:09:50;1.87;;;1.77;;
5257;SDS011;2651;51.594;9.928;2023-08-12T15:10:54;1.80;;;1.70;;
5257;SDS011;2651;51.594;9.928;2023-08-12T15:11:56;2.07;;;1.93;;
5257;SDS011;2651;51.594;9.928;2023-08-12T15:12:58;1.87;;;1.73;;
5257;SDS011;2651;51.594;9.928;2023-08-12T15:14:00;2.03;;;1.93;;
5257;SDS011;2651;51.594;9.928;2023-08-12T15:15:01;1.50;;;1.40;;
5257;SDS011;2651;51.594;9.928;2023-08-12T15:16:04;1.77;;;1.67;;
5257;SDS011;2651;51.594;9.928;2023-08-12T15:17:06;2.53;;;2.30;;
5257;SDS011;2651;51.594;9.928;2023-08-12T15:18:07;2.07;;;1.97;;
5257;SDS011;2651;51.594;9.928;2023-08-12T15:19:09;2.23;;;1.50;;
5257;SDS011;2651;51.594;9.928;2023-08-12T15:20:11;1.97;;;1.70;;
5257;SDS011;2651;51.594;9.928;2023-08-12T15:21:13;1.70;;;1.60;;
5257;SDS011;2651;51.594;9.928;2023-08-12T15:22:14;2.27;;;1.97;;
5257;SDS011;2651;51.594;9.928;2023-08-12T15:23:16;3.93;;;1.90;;
5257;SDS011;2651;51.594;9.928;2023-08-12T15:24:18;1.80;;;1.70;;
5257;SDS011;2651;51.594;9.928;2023-08-12T15:25:19;1.80;;;1.70;;
5257;SDS011;2651;51.594;9.928;2023-08-12T15:26:21;2.10;;;1.90;;
5257;SDS011;2651;51.594;9.928;2023-08-12T15:27:26;1.80;;;1.70;;
5257;SDS011;2651;51.594;9.928;2023-08-12T15:28:28;2.73;;;1.60;;
5257;SDS011;2651;51.594;9.928;2023-08-12T15:29:30;2.20;;;2.10;;
5257;SDS011;2651;51.594;9.928;2023-08-12T15:30:32;2.00;;;1.90;;
5257;SDS011;2651;51.594;9.928;2023-08-12T15:31:36;3.33;;;1.63;;
5257;SDS011;2651;51.594;9.928;2023-08-12T15:32:38;1.97;;;1.70;;
5257;SDS011;2651;51.594;9.928;2023-08-12T15:33:43;2.70;;;1.73;;
5257;SDS011;2651;51.594;9.928;2023-08-12T15:34:44;2.40;;;1.87;;
5257;SDS011;2651;51.594;9.928;2023-08-12T15:35:46;2.10;;;1.90;;
5257;SDS011;2651;51.594;9.928;2023-08-12T15:36:50;2.23;;;2.03;;
5257;SDS011;2651;51.594;9.928;2023-08-12T15:37:52;1.80;;;1.70;;
5257;SDS011;2651;51.594;9.928;2023-08-12T15:38:54;1.93;;;1.83;;
5257;SDS011;2651;51.594;9.928;2023-08-12T15:39:56;1.90;;;1.77;;
5257;SDS011;2651;51.594;9.928;2023-08-12T15:40:57;2.13;;;2.03;;
5257;SDS011;2651;51.594;9.928;2023-08-12T15:41:59;1.97;;;1.87;;
5257;SDS011;2651;51.594;9.928;2023-08-12T15:43:01;3.10;;;2.20;;
5257;SDS011;2651;51.594;9.928;2023-08-12T15:44:03;2.07;;;1.87;;
5257;SDS011;2651;51.594;9.928;2023-08-12T15:45:05;2.30;;;2.10;;
5257;SDS011;2651;51.594;9.928;2023-08-12T15:46:07;2.20;;;2.10;;
5257;SDS011;2651;51.594;9.928;2023-08-12T15:47:09;2.23;;;2.00;;
5257;SDS011;2651;51.594;9.928;2023-08-12T15:48:11;2.30;;;2.10;;
5257;SDS011;2651;51.594;9.928;2023-08-12T15:49:13;2.00;;;1.90;;
5257;SDS011;2651;51.594;9.928;2023-08-12T15:50:15;2.30;;;2.10;;
5257;SDS011;2651;51.594;9.928;2023-08-12T15:51:17;1.93;;;1.83;;
5257;SDS011;2651;51.594;9.928;2023-08-12T15:52:18;2.23;;;1.97;;
5257;SDS011;2651;51.594;9.928;2023-08-12T15:53:21;1.90;;;1.80;;
5257;SDS011;2651;51.594;9.928;2023-08-12T15:54:22;4.73;;;2.37;;
5257;SDS011;2651;51.594;9.928;2023-08-12T15:55:24;1.83;;;1.63;;
5257;SDS011;2651;51.594;9.928;2023-08-12T15:56:26;2.90;;;2.70;;
5257;SDS011;2651;51.594;9.928;2023-08-12T15:57:32;2.50;;;2.30;;
5257;SDS011;2651;51.594;9.928;2023-08-12T15:58:34;2.63;;;2.20;;
5257;SDS011;2651;51.594;9.928;2023-08-12T15:59:36;2.20;;;2.00;;
5257;SDS011;2651;51.594;9.928;2023-08-12T16:00:37;2.07;;;1.87;;
5257;SDS011;2651;51.594;9.928;2023-08-12T16:01:44;3.30;;;1.97;;
5257;SDS011;2651;51.594;9.928;2023-08-12T16:02:46;2.50;;;2.30;;
5257;SDS011;2651;51.594;9.928;2023-08-12T16:03:48;2.20;;;2.10;;
5257;SDS011;2651;51.594;9.928;2023-08-12T16:04:50;2.87;;;2.60;;
5257;SDS011;2651;51.594;9.928;2023-08-12T16:05:55;2.10;;;2.00;;
5257;SDS011;2651;51.594;9.928;2023-08-12T16:06:59;2.13;;;2.00;;
5257;SDS011;2651;51.594;9.928;2023-08-12T16:08:01;3.90;;;2.40;;
5257;SDS011;2651;51.594;9.928;2023-08-12T16:09:04;3.47;;;2.40;;
5257;SDS011;2651;51.594;9.928;2023-08-12T16:10:19;2.80;;;2.37;;
5257;SDS011;2651;51.594;9.928;2023-08-12T16:11:20;2.40;;;2.30;;
5257;SDS011;2651;51.594;9.928;2023-08-12T16:12:22;2.37;;;2.20;;
5257;SDS011;2651;51.594;9.928;2023-08-12T16:13:24;5.80;;;2.00;;
5257;SDS011;2651;51.594;9.928;2023-08-12T16:14:25;3.53;;;2.13;;
5257;SDS011;2651;51.594;9.928;2023-08-12T16:15:27;2.27;;;2.13;;
5257;SDS011;2651;51.594;9.928;2023-08-12T16:16:29;2.10;;;2.00;;
5257;SDS011;2651;51.594;9.928;2023-08-12T16:17:31;2.60;;;1.90;;
5257;SDS011;2651;51.594;9.928;2023-08-12T16:18:33;3.00;;;2.37;;
5257;SDS011;2651;51.594;9.928;2023-08-12T16:19:34;2.30;;;2.20;;
5257;SDS011;2651;51.594;9.928;2023-08-12T16:20:36;2.10;;;2.00;;
5257;SDS011;2651;51.594;9.928;2023-08-12T16:21:38;4.40;;;2.33;;
5257;SDS011;2651;51.594;9.928;2023-08-12T16:22:40;2.20;;;2.07;;
5257;SDS011;2651;51.594;9.928;2023-08-12T16:23:41;3.43;;;2.00;;
5257;SDS011;2651;51.594;9.928;2023-08-12T16:24:43;2.00;;;1.87;;
5257;SDS011;2651;51.594;9.928;2023-08-12T16:25:45;2.27;;;2.00;;
5257;SDS011;2651;51.594;9.928;2023-08-12T16:26:46;2.00;;;1.90;;
5257;SDS011;2651;51.594;9.928;2023-08-12T16:27:48;3.13;;;1.70;;
5257;SDS011;2651;51.594;9.928;2023-08-12T16:28:50;2.10;;;2.00;;
5257;SDS011;2651;51.594;9.928;2023-08-12T16:29:52;3.20;;;2.60;;
5257;SDS011;2651;51.594;9.928;2023-08-12T16:30:54;2.00;;;1.90;;
5257;SDS011;2651;51.594;9.928;2023-08-12T16:31:55;2.07;;;1.87;;
5257;SDS011;2651;51.594;9.928;2023-08-12T16:32:57;2.30;;;2.10;;